sensor_id;sensor_type;location;lat;lon;timestamp;P1;durP1;ratioP1;P2;durP2;ratioP2
45254;SDS011;30989;52.078;21.014;2023-11-22T00:02:03;12.38;;;5.15;;
45254;SDS011;30989;52.078;21.014;2023-11-22T00:04:29;13.77;;;5.43;;
45254;SDS011;30989;52.078;21.014;2023-11-22T00:06:54;10.93;;;4.88;;
45254;SDS011;30989;52.078;21.014;2023-11-22T00:09:20;10.48;;;4.78;;
45254;SDS011;30989;52.078;21.014;2023-11-22T00:11:48;13.77;;;6.07;;
45254;SDS011;30989;52.078;21.014;2023-11-22T00:14:14;11.48;;;6.72;;
45254;SDS011;30989;52.078;21.014;2023-11-22T00:16:39;14.15;;;5.82;;
45254;SDS011;30989;52.078;21.014;2023-11-22T00:19:05;15.23;;;5.80;;
45254;SDS011;30989;52.078;21.014;2023-11-22T00:21:31;15.15;;;6.32;;
45254;SDS011;30989;52.078;21.014;2023-11-22T00:23:57;15.20;;;5.45;;
45254;SDS011;30989;52.078;21.014;2023-11-22T00:26:23;11.60;;;4.78;;
45254;SDS011;30989;52.078;21.014;2023-11-22T00:28:54;8.75;;;3.42;;
45254;SDS011;30989;52.078;21.014;2023-11-22T00:31:20;15.23;;;5.10;;
45254;SDS011;30989;52.078;21.014;2023-11-22T00:33:45;11.32;;;4.95;;
45254;SDS011;30989;52.078;21.014;2023-11-22T00:36:11;11.05;;;5.30;;
45254;SDS011;30989;52.078;21.014;2023-11-22T00:38:37;11.18;;;5.28;;
45254;SDS011;30989;52.078;21.014;2023-11-22T00:41:04;13.10;;;5.20;;
45254;SDS011;30989;52.078;21.014;2023-11-22T00:43:30;12.50;;;5.38;;
45254;SDS011;30989;52.078;21.014;2023-11-22T00:45:56;14.63;;;5.60;;
45254;SDS011;30989;52.078;21.014;2023-11-22T00:48:22;10.63;;;5.22;;
45254;SDS011;30989;52.078;21.014;2023-11-22T00:50:47;12.10;;;4.88;;
45254;SDS011;30989;52.078;21.014;2023-11-22T00:53:13;11.50;;;5.30;;
45254;SDS011;30989;52.078;21.014;2023-11-22T00:55:40;9.77;;;4.60;;
45254;SDS011;30989;52.078;21.014;2023-11-22T00:58:08;8.45;;;4.10;;
45254;SDS011;30989;52.078;21.014;2023-11-22T01:00:34;12.35;;;5.03;;
45254;SDS011;30989;52.078;21.014;2023-11-22T01:03:00;13.73;;;4.97;;
45254;SDS011;30989;52.078;21.014;2023-11-22T01:05:25;10.57;;;4.13;;
45254;SDS011;30989;52.078;21.014;2023-11-22T01:07:51;9.18;;;3.95;;
45254;SDS011;30989;52.078;21.014;2023-11-22T01:10:16;16.10;;;5.10;;
45254;SDS011;30989;52.078;21.014;2023-11-22T01:12:42;8.73;;;4.20;;
45254;SDS011;30989;52.078;21.014;2023-11-22T01:15:07;11.02;;;4.38;;
45254;SDS011;30989;52.078;21.014;2023-11-22T01:17:34;10.45;;;4.47;;
45254;SDS011;30989;52.078;21.014;2023-11-22T01:20:03;10.85;;;4.47;;
45254;SDS011;30989;52.078;21.014;2023-11-22T01:22:29;10.20;;;4.72;;
45254;SDS011;30989;52.078;21.014;2023-11-22T01:24:57;8.43;;;3.55;;
45254;SDS011;30989;52.078;21.014;2023-11-22T01:27:23;8.73;;;3.72;;
45254;SDS011;30989;52.078;21.014;2023-11-22T01:29:49;12.05;;;4.03;;
45254;SDS011;30989;52.078;21.014;2023-11-22T01:32:16;11.20;;;4.18;;
45254;SDS011;30989;52.078;21.014;2023-11-22T01:34:42;10.20;;;4.28;;
45254;SDS011;30989;52.078;21.014;2023-11-22T01:37:07;10.23;;;4.28;;
45254;SDS011;30989;52.078;21.014;2023-11-22T01:39:33;7.53;;;3.58;;
45254;SDS011;30989;52.078;21.014;2023-11-22T01:41:58;9.40;;;3.83;;
45254;SDS011;30989;52.078;21.014;2023-11-22T01:44:24;8.85;;;4.15;;
45254;SDS011;30989;52.078;21.014;2023-11-22T01:46:51;9.40;;;4.35;;
45254;SDS011;30989;52.078;21.014;2023-11-22T01:49:17;8.80;;;4.18;;
45254;SDS011;30989;52.078;21.014;2023-11-22T01:51:43;8.73;;;3.70;;
45254;SDS011;30989;52.078;21.014;2023-11-22T01:54:10;8.15;;;3.50;;
45254;SDS011;30989;52.078;21.014;2023-11-22T01:56:36;7.57;;;4.03;;
45254;SDS011;30989;52.078;21.014;2023-11-22T01:59:03;8.15;;;3.72;;
45254;SDS011;30989;52.078;21.014;2023-11-22T02:01:29;10.30;;;3.80;;
45254;SDS011;30989;52.078;21.014;2023-11-22T02:03:56;9.70;;;4.45;;
45254;SDS011;30989;52.078;21.014;2023-11-22T02:06:22;10.13;;;3.83;;
45254;SDS011;30989;52.078;21.014;2023-11-22T02:08:48;12.38;;;4.45;;
45254;SDS011;30989;52.078;21.014;2023-11-22T02:11:17;9.63;;;4.53;;
45254;SDS011;30989;52.078;21.014;2023-11-22T02:13:50;7.68;;;3.33;;
45254;SDS011;30989;52.078;21.014;2023-11-22T02:16:17;13.75;;;4.70;;
45254;SDS011;30989;52.078;21.014;2023-11-22T02:18:44;9.57;;;3.78;;
45254;SDS011;30989;52.078;21.014;2023-11-22T02:21:10;8.50;;;3.70;;
45254;SDS011;30989;52.078;21.014;2023-11-22T02:23:36;7.93;;;3.42;;
45254;SDS011;30989;52.078;21.014;2023-11-22T02:26:02;7.30;;;3.35;;
45254;SDS011;30989;52.078;21.014;2023-11-22T02:28:27;7.40;;;3.42;;
45254;SDS011;30989;52.078;21.014;2023-11-22T02:30:53;9.65;;;3.47;;
45254;SDS011;30989;52.078;21.014;2023-11-22T02:33:21;8.45;;;3.95;;
45254;SDS011;30989;52.078;21.014;2023-11-22T02:35:47;6.95;;;3.42;;
45254;SDS011;30989;52.078;21.014;2023-11-22T02:38:12;10.93;;;4.30;;
45254;SDS011;30989;52.078;21.014;2023-11-22T02:40:38;5.95;;;3.30;;
45254;SDS011;30989;52.078;21.014;2023-11-22T02:43:03;7.55;;;3.33;;
45254;SDS011;30989;52.078;21.014;2023-11-22T02:45:34;7.22;;;3.15;;
45254;SDS011;30989;52.078;21.014;2023-11-22T02:48:00;10.20;;;3.15;;
45254;SDS011;30989;52.078;21.014;2023-11-22T02:50:28;7.97;;;3.22;;
45254;SDS011;30989;52.078;21.014;2023-11-22T02:52:54;12.63;;;3.65;;
45254;SDS011;30989;52.078;21.014;2023-11-22T02:55:20;9.48;;;3.20;;
45254;SDS011;30989;52.078;21.014;2023-11-22T02:57:45;6.18;;;3.00;;
45254;SDS011;30989;52.078;21.014;2023-11-22T03:00:11;5.25;;;2.72;;
45254;SDS011;30989;52.078;21.014;2023-11-22T03:02:39;6.07;;;3.17;;
45254;SDS011;30989;52.078;21.014;2023-11-22T03:05:08;7.45;;;2.90;;
45254;SDS011;30989;52.078;21.014;2023-11-22T03:07:35;5.78;;;2.53;;
45254;SDS011;30989;52.078;21.014;2023-11-22T03:10:01;5.15;;;2.97;;
45254;SDS011;30989;52.078;21.014;2023-11-22T03:12:27;9.35;;;2.80;;
45254;SDS011;30989;52.078;21.014;2023-11-22T03:14:53;10.25;;;3.67;;
45254;SDS011;30989;52.078;21.014;2023-11-22T03:17:24;5.40;;;2.72;;
45254;SDS011;30989;52.078;21.014;2023-11-22T03:19:50;8.40;;;2.75;;
45254;SDS011;30989;52.078;21.014;2023-11-22T03:22:15;8.02;;;3.20;;
45254;SDS011;30989;52.078;21.014;2023-11-22T03:24:41;6.38;;;3.50;;
45254;SDS011;30989;52.078;21.014;2023-11-22T03:27:07;6.47;;;2.55;;
45254;SDS011;30989;52.078;21.014;2023-11-22T03:29:33;5.63;;;2.30;;
45254;SDS011;30989;52.078;21.014;2023-11-22T03:32:00;6.75;;;3.22;;
45254;SDS011;30989;52.078;21.014;2023-11-22T03:34:25;7.50;;;3.15;;
45254;SDS011;30989;52.078;21.014;2023-11-22T03:36:51;7.10;;;2.88;;
45254;SDS011;30989;52.078;21.014;2023-11-22T03:39:17;7.65;;;3.00;;
45254;SDS011;30989;52.078;21.014;2023-11-22T03:41:42;5.68;;;2.78;;
45254;SDS011;30989;52.078;21.014;2023-11-22T03:44:08;6.65;;;2.80;;
45254;SDS011;30989;52.078;21.014;2023-11-22T03:46:35;6.38;;;2.90;;
45254;SDS011;30989;52.078;21.014;2023-11-22T03:49:02;5.18;;;3.33;;
45254;SDS011;30989;52.078;21.014;2023-11-22T03:51:34;7.15;;;3.15;;
45254;SDS011;30989;52.078;21.014;2023-11-22T03:54:01;8.77;;;2.83;;
45254;SDS011;30989;52.078;21.014;2023-11-22T03:56:27;6.55;;;3.00;;
45254;SDS011;30989;52.078;21.014;2023-11-22T03:58:54;10.70;;;3.58;;
45254;SDS011;30989;52.078;21.014;2023-11-22T04:01:20;13.05;;;3.67;;
45254;SDS011;30989;52.078;21.014;2023-11-22T04:03:48;7.55;;;3.55;;
45254;SDS011;30989;52.078;21.014;2023-11-22T04:06:17;6.85;;;2.95;;
45254;SDS011;30989;52.078;21.014;2023-11-22T04:08:44;7.22;;;3.42;;
45254;SDS011;30989;52.078;21.014;2023-11-22T04:11:11;7.80;;;3.33;;
45254;SDS011;30989;52.078;21.014;2023-11-22T04:13:37;8.52;;;3.10;;
45254;SDS011;30989;52.078;21.014;2023-11-22T04:16:03;6.47;;;3.05;;
45254;SDS011;30989;52.078;21.014;2023-11-22T04:18:29;8.65;;;3.80;;
45254;SDS011;30989;52.078;21.014;2023-11-22T04:20:55;8.18;;;3.40;;
45254;SDS011;30989;52.078;21.014;2023-11-22T04:23:23;8.23;;;3.70;;
45254;SDS011;30989;52.078;21.014;2023-11-22T04:25:48;5.82;;;2.92;;
45254;SDS011;30989;52.078;21.014;2023-11-22T04:28:14;7.07;;;3.03;;
45254;SDS011;30989;52.078;21.014;2023-11-22T04:30:40;9.35;;;2.88;;
45254;SDS011;30989;52.078;21.014;2023-11-22T04:33:06;18.23;;;3.67;;
45254;SDS011;30989;52.078;21.014;2023-11-22T04:35:32;9.55;;;3.67;;
45254;SDS011;30989;52.078;21.014;2023-11-22T04:38:02;8.70;;;3.80;;
45254;SDS011;30989;52.078;21.014;2023-11-22T04:40:29;5.53;;;2.70;;
45254;SDS011;30989;52.078;21.014;2023-11-22T04:42:55;5.80;;;3.00;;
45254;SDS011;30989;52.078;21.014;2023-11-22T04:45:20;6.95;;;3.35;;
45254;SDS011;30989;52.078;21.014;2023-11-22T04:47:46;7.47;;;3.00;;
45254;SDS011;30989;52.078;21.014;2023-11-22T04:50:11;8.98;;;4.15;;
45254;SDS011;30989;52.078;21.014;2023-11-22T04:52:37;9.43;;;3.47;;
45254;SDS011;30989;52.078;21.014;2023-11-22T04:55:03;7.32;;;3.20;;
45254;SDS011;30989;52.078;21.014;2023-11-22T04:57:29;7.93;;;3.75;;
45254;SDS011;30989;52.078;21.014;2023-11-22T04:59:55;14.85;;;3.88;;
45254;SDS011;30989;52.078;21.014;2023-11-22T05:02:20;7.85;;;3.53;;
45254;SDS011;30989;52.078;21.014;2023-11-22T05:04:46;8.18;;;3.03;;
45254;SDS011;30989;52.078;21.014;2023-11-22T05:07:15;7.32;;;3.50;;
45254;SDS011;30989;52.078;21.014;2023-11-22T05:09:41;7.80;;;3.60;;
45254;SDS011;30989;52.078;21.014;2023-11-22T05:12:09;6.88;;;2.75;;
45254;SDS011;30989;52.078;21.014;2023-11-22T05:14:35;6.45;;;3.03;;
45254;SDS011;30989;52.078;21.014;2023-11-22T05:17:00;7.03;;;3.83;;
45254;SDS011;30989;52.078;21.014;2023-11-22T05:19:26;13.48;;;3.88;;
45254;SDS011;30989;52.078;21.014;2023-11-22T05:21:51;8.02;;;2.90;;
45254;SDS011;30989;52.078;21.014;2023-11-22T05:24:17;8.95;;;3.75;;
45254;SDS011;30989;52.078;21.014;2023-11-22T05:26:42;6.18;;;2.85;;
45254;SDS011;30989;52.078;21.014;2023-11-22T05:29:08;11.57;;;3.60;;
45254;SDS011;30989;52.078;21.014;2023-11-22T05:31:34;6.68;;;3.63;;
45254;SDS011;30989;52.078;21.014;2023-11-22T05:34:00;8.77;;;3.30;;
45254;SDS011;30989;52.078;21.014;2023-11-22T05:36:25;6.32;;;2.80;;
45254;SDS011;30989;52.078;21.014;2023-11-22T05:38:51;6.35;;;2.95;;
45254;SDS011;30989;52.078;21.014;2023-11-22T05:41:16;9.85;;;3.15;;
45254;SDS011;30989;52.078;21.014;2023-11-22T05:43:42;8.35;;;3.35;;
45254;SDS011;30989;52.078;21.014;2023-11-22T05:46:08;7.05;;;2.90;;
45254;SDS011;30989;52.078;21.014;2023-11-22T05:48:33;8.52;;;3.30;;
45254;SDS011;30989;52.078;21.014;2023-11-22T05:50:59;6.50;;;3.30;;
45254;SDS011;30989;52.078;21.014;2023-11-22T05:53:25;8.57;;;3.70;;
45254;SDS011;30989;52.078;21.014;2023-11-22T05:55:50;7.28;;;3.20;;
45254;SDS011;30989;52.078;21.014;2023-11-22T05:58:18;5.72;;;3.20;;
45254;SDS011;30989;52.078;21.014;2023-11-22T06:00:43;12.02;;;4.13;;
45254;SDS011;30989;52.078;21.014;2023-11-22T06:03:10;8.93;;;4.28;;
45254;SDS011;30989;52.078;21.014;2023-11-22T06:05:38;10.55;;;4.25;;
45254;SDS011;30989;52.078;21.014;2023-11-22T06:08:03;11.85;;;3.85;;
45254;SDS011;30989;52.078;21.014;2023-11-22T06:10:29;6.53;;;3.55;;
45254;SDS011;30989;52.078;21.014;2023-11-22T06:12:54;9.07;;;3.80;;
45254;SDS011;30989;52.078;21.014;2023-11-22T06:15:20;9.43;;;4.03;;
45254;SDS011;30989;52.078;21.014;2023-11-22T06:17:47;10.95;;;3.47;;
45254;SDS011;30989;52.078;21.014;2023-11-22T06:20:16;10.95;;;4.03;;
45254;SDS011;30989;52.078;21.014;2023-11-22T06:22:41;10.68;;;4.28;;
45254;SDS011;30989;52.078;21.014;2023-11-22T06:25:13;7.45;;;3.20;;
45254;SDS011;30989;52.078;21.014;2023-11-22T06:27:39;9.52;;;3.90;;
45254;SDS011;30989;52.078;21.014;2023-11-22T06:30:05;11.63;;;3.70;;
45254;SDS011;30989;52.078;21.014;2023-11-22T06:32:31;5.60;;;2.90;;
45254;SDS011;30989;52.078;21.014;2023-11-22T06:34:58;9.75;;;4.20;;
45254;SDS011;30989;52.078;21.014;2023-11-22T06:37:24;6.30;;;3.10;;
45254;SDS011;30989;52.078;21.014;2023-11-22T06:39:49;9.90;;;3.47;;
45254;SDS011;30989;52.078;21.014;2023-11-22T06:42:16;8.45;;;3.00;;
45254;SDS011;30989;52.078;21.014;2023-11-22T06:44:41;7.18;;;3.25;;
45254;SDS011;30989;52.078;21.014;2023-11-22T06:47:07;10.50;;;3.85;;
45254;SDS011;30989;52.078;21.014;2023-11-22T06:49:33;9.38;;;3.92;;
45254;SDS011;30989;52.078;21.014;2023-11-22T06:51:59;7.97;;;3.15;;
45254;SDS011;30989;52.078;21.014;2023-11-22T06:54:25;9.00;;;3.70;;
45254;SDS011;30989;52.078;21.014;2023-11-22T06:56:50;9.48;;;2.88;;
45254;SDS011;30989;52.078;21.014;2023-11-22T06:59:16;8.02;;;4.05;;
45254;SDS011;30989;52.078;21.014;2023-11-22T07:01:42;7.85;;;3.42;;
45254;SDS011;30989;52.078;21.014;2023-11-22T07:04:08;7.07;;;3.15;;
45254;SDS011;30989;52.078;21.014;2023-11-22T07:06:34;9.65;;;4.13;;
45254;SDS011;30989;52.078;21.014;2023-11-22T07:09:01;11.63;;;4.25;;
45254;SDS011;30989;52.078;21.014;2023-11-22T07:11:26;12.25;;;4.03;;
45254;SDS011;30989;52.078;21.014;2023-11-22T07:13:55;8.55;;;3.63;;
45254;SDS011;30989;52.078;21.014;2023-11-22T07:16:22;9.35;;;4.13;;
45254;SDS011;30989;52.078;21.014;2023-11-22T07:18:49;7.25;;;3.38;;
45254;SDS011;30989;52.078;21.014;2023-11-22T07:21:15;8.00;;;3.00;;
45254;SDS011;30989;52.078;21.014;2023-11-22T07:23:42;7.35;;;3.35;;
45254;SDS011;30989;52.078;21.014;2023-11-22T07:26:10;7.90;;;3.13;;
45254;SDS011;30989;52.078;21.014;2023-11-22T07:28:39;12.35;;;3.10;;
45254;SDS011;30989;52.078;21.014;2023-11-22T07:31:08;8.85;;;2.85;;
45254;SDS011;30989;52.078;21.014;2023-11-22T07:33:34;7.40;;;3.42;;
45254;SDS011;30989;52.078;21.014;2023-11-22T07:36:00;7.18;;;3.25;;
45254;SDS011;30989;52.078;21.014;2023-11-22T07:38:26;9.27;;;3.17;;
45254;SDS011;30989;52.078;21.014;2023-11-22T07:40:52;6.60;;;3.13;;
45254;SDS011;30989;52.078;21.014;2023-11-22T07:43:18;7.50;;;3.05;;
45254;SDS011;30989;52.078;21.014;2023-11-22T07:45:43;7.88;;;3.13;;
45254;SDS011;30989;52.078;21.014;2023-11-22T07:48:10;5.47;;;2.45;;
45254;SDS011;30989;52.078;21.014;2023-11-22T07:50:39;7.22;;;3.25;;
45254;SDS011;30989;52.078;21.014;2023-11-22T07:53:09;8.82;;;3.38;;
45254;SDS011;30989;52.078;21.014;2023-11-22T07:55:37;10.30;;;3.63;;
45254;SDS011;30989;52.078;21.014;2023-11-22T07:58:03;10.75;;;2.97;;
45254;SDS011;30989;52.078;21.014;2023-11-22T08:00:32;10.10;;;3.67;;
45254;SDS011;30989;52.078;21.014;2023-11-22T08:02:59;11.52;;;4.13;;
45254;SDS011;30989;52.078;21.014;2023-11-22T08:05:31;8.73;;;3.05;;
45254;SDS011;30989;52.078;21.014;2023-11-22T08:08:04;13.82;;;3.70;;
45254;SDS011;30989;52.078;21.014;2023-11-22T08:10:36;11.02;;;3.90;;
45254;SDS011;30989;52.078;21.014;2023-11-22T08:13:02;7.50;;;3.33;;
45254;SDS011;30989;52.078;21.014;2023-11-22T08:15:28;7.07;;;3.38;;
45254;SDS011;30989;52.078;21.014;2023-11-22T08:17:54;8.25;;;3.65;;
45254;SDS011;30989;52.078;21.014;2023-11-22T08:20:19;7.30;;;2.88;;
45254;SDS011;30989;52.078;21.014;2023-11-22T08:22:45;6.97;;;3.33;;
45254;SDS011;30989;52.078;21.014;2023-11-22T08:25:12;6.38;;;2.78;;
45254;SDS011;30989;52.078;21.014;2023-11-22T08:27:38;8.65;;;3.40;;
45254;SDS011;30989;52.078;21.014;2023-11-22T08:30:06;11.73;;;3.95;;
45254;SDS011;30989;52.078;21.014;2023-11-22T08:32:34;9.40;;;3.47;;
45254;SDS011;30989;52.078;21.014;2023-11-22T08:35:00;9.07;;;3.17;;
45254;SDS011;30989;52.078;21.014;2023-11-22T08:37:26;8.43;;;3.13;;
45254;SDS011;30989;52.078;21.014;2023-11-22T08:39:52;11.68;;;2.92;;
45254;SDS011;30989;52.078;21.014;2023-11-22T08:42:17;6.97;;;3.08;;
45254;SDS011;30989;52.078;21.014;2023-11-22T08:44:43;6.05;;;3.05;;
45254;SDS011;30989;52.078;21.014;2023-11-22T08:47:08;5.70;;;2.67;;
45254;SDS011;30989;52.078;21.014;2023-11-22T08:49:34;5.30;;;2.53;;
45254;SDS011;30989;52.078;21.014;2023-11-22T08:51:59;7.25;;;2.95;;
45254;SDS011;30989;52.078;21.014;2023-11-22T08:54:27;7.25;;;2.83;;
45254;SDS011;30989;52.078;21.014;2023-11-22T08:56:54;7.43;;;2.67;;
45254;SDS011;30989;52.078;21.014;2023-11-22T08:59:23;5.70;;;2.65;;
45254;SDS011;30989;52.078;21.014;2023-11-22T09:01:48;8.25;;;3.05;;
45254;SDS011;30989;52.078;21.014;2023-11-22T09:04:14;9.30;;;3.85;;
45254;SDS011;30989;52.078;21.014;2023-11-22T09:06:40;7.90;;;2.80;;
45254;SDS011;30989;52.078;21.014;2023-11-22T09:09:05;9.73;;;3.13;;
45254;SDS011;30989;52.078;21.014;2023-11-22T09:11:31;7.78;;;3.00;;
45254;SDS011;30989;52.078;21.014;2023-11-22T09:13:59;7.45;;;3.00;;
45254;SDS011;30989;52.078;21.014;2023-11-22T09:16:27;7.57;;;3.40;;
45254;SDS011;30989;52.078;21.014;2023-11-22T09:18:52;18.30;;;4.35;;
45254;SDS011;30989;52.078;21.014;2023-11-22T09:21:21;6.40;;;2.67;;
45254;SDS011;30989;52.078;21.014;2023-11-22T09:23:46;6.43;;;2.95;;
45254;SDS011;30989;52.078;21.014;2023-11-22T09:26:13;5.88;;;2.55;;
45254;SDS011;30989;52.078;21.014;2023-11-22T09:28:39;5.63;;;2.15;;
45254;SDS011;30989;52.078;21.014;2023-11-22T09:31:08;7.43;;;2.28;;
45254;SDS011;30989;52.078;21.014;2023-11-22T09:33:34;4.80;;;2.38;;
45254;SDS011;30989;52.078;21.014;2023-11-22T09:35:59;5.80;;;1.98;;
45254;SDS011;30989;52.078;21.014;2023-11-22T09:38:25;5.55;;;2.55;;
45254;SDS011;30989;52.078;21.014;2023-11-22T09:40:50;7.43;;;2.90;;
45254;SDS011;30989;52.078;21.014;2023-11-22T09:43:17;8.82;;;2.80;;
45254;SDS011;30989;52.078;21.014;2023-11-22T09:45:45;7.18;;;2.65;;
45254;SDS011;30989;52.078;21.014;2023-11-22T09:48:17;5.72;;;2.50;;
45254;SDS011;30989;52.078;21.014;2023-11-22T09:51:03;5.82;;;3.15;;
45254;SDS011;30989;52.078;21.014;2023-11-22T09:55:58;5.80;;;2.60;;
45254;SDS011;30989;52.078;21.014;2023-11-22T09:58:28;7.07;;;2.40;;
45254;SDS011;30989;52.078;21.014;2023-11-22T10:00:55;10.15;;;2.95;;
45254;SDS011;30989;52.078;21.014;2023-11-22T10:03:22;6.75;;;2.80;;
45254;SDS011;30989;52.078;21.014;2023-11-22T10:05:49;6.40;;;2.30;;
45254;SDS011;30989;52.078;21.014;2023-11-22T10:08:14;8.05;;;2.92;;
45254;SDS011;30989;52.078;21.014;2023-11-22T10:10:42;7.68;;;3.35;;
45254;SDS011;30989;52.078;21.014;2023-11-22T10:13:11;5.85;;;2.55;;
45254;SDS011;30989;52.078;21.014;2023-11-22T10:15:38;6.95;;;3.53;;
45254;SDS011;30989;52.078;21.014;2023-11-22T10:18:03;5.82;;;2.78;;
45254;SDS011;30989;52.078;21.014;2023-11-22T10:20:37;6.35;;;2.78;;
45254;SDS011;30989;52.078;21.014;2023-11-22T10:23:07;8.45;;;2.50;;
45254;SDS011;30989;52.078;21.014;2023-11-22T10:25:45;6.35;;;2.42;;
45254;SDS011;30989;52.078;21.014;2023-11-22T10:28:17;6.43;;;2.40;;
45254;SDS011;30989;52.078;21.014;2023-11-22T10:30:47;5.32;;;2.35;;
45254;SDS011;30989;52.078;21.014;2023-11-22T10:33:15;4.43;;;2.22;;
45254;SDS011;30989;52.078;21.014;2023-11-22T10:35:45;5.88;;;2.70;;
45254;SDS011;30989;52.078;21.014;2023-11-22T10:38:14;5.65;;;2.70;;
45254;SDS011;30989;52.078;21.014;2023-11-22T10:40:41;8.48;;;3.05;;
45254;SDS011;30989;52.078;21.014;2023-11-22T10:43:10;6.10;;;2.95;;
45254;SDS011;30989;52.078;21.014;2023-11-22T10:45:37;5.72;;;2.80;;
45254;SDS011;30989;52.078;21.014;2023-11-22T10:48:04;5.05;;;2.72;;
45254;SDS011;30989;52.078;21.014;2023-11-22T10:50:30;5.95;;;2.55;;
45254;SDS011;30989;52.078;21.014;2023-11-22T10:52:56;5.75;;;2.72;;
45254;SDS011;30989;52.078;21.014;2023-11-22T10:55:30;9.75;;;2.83;;
45254;SDS011;30989;52.078;21.014;2023-11-22T11:00:26;6.07;;;2.70;;
45254;SDS011;30989;52.078;21.014;2023-11-22T11:02:59;6.13;;;2.95;;
45254;SDS011;30989;52.078;21.014;2023-11-22T11:05:30;6.05;;;2.80;;
45254;SDS011;30989;52.078;21.014;2023-11-22T11:10:43;6.32;;;3.40;;
45254;SDS011;30989;52.078;21.014;2023-11-22T11:13:12;9.45;;;4.00;;
45254;SDS011;30989;52.078;21.014;2023-11-22T11:15:38;6.32;;;2.47;;
45254;SDS011;30989;52.078;21.014;2023-11-22T11:18:09;7.82;;;3.10;;
45254;SDS011;30989;52.078;21.014;2023-11-22T11:20:50;6.18;;;3.28;;
45254;SDS011;30989;52.078;21.014;2023-11-22T11:23:20;5.40;;;3.03;;
45254;SDS011;30989;52.078;21.014;2023-11-22T11:25:50;7.40;;;2.90;;
45254;SDS011;30989;52.078;21.014;2023-11-22T11:28:42;4.90;;;2.78;;
45254;SDS011;30989;52.078;21.014;2023-11-22T11:31:12;8.18;;;3.35;;
45254;SDS011;30989;52.078;21.014;2023-11-22T11:38:53;4.97;;;2.35;;
45254;SDS011;30989;52.078;21.014;2023-11-22T11:41:24;5.78;;;2.75;;
45254;SDS011;30989;52.078;21.014;2023-11-22T11:43:52;6.55;;;2.97;;
45254;SDS011;30989;52.078;21.014;2023-11-22T11:46:17;6.65;;;3.03;;
45254;SDS011;30989;52.078;21.014;2023-11-22T11:48:43;4.55;;;2.40;;
45254;SDS011;30989;52.078;21.014;2023-11-22T11:51:13;6.25;;;3.22;;
45254;SDS011;30989;52.078;21.014;2023-11-22T11:53:39;6.70;;;3.28;;
45254;SDS011;30989;52.078;21.014;2023-11-22T11:56:05;6.65;;;3.15;;
45254;SDS011;30989;52.078;21.014;2023-11-22T11:58:32;6.47;;;3.03;;
45254;SDS011;30989;52.078;21.014;2023-11-22T12:00:57;11.25;;;4.00;;
45254;SDS011;30989;52.078;21.014;2023-11-22T12:03:23;10.00;;;3.42;;
45254;SDS011;30989;52.078;21.014;2023-11-22T12:05:49;8.20;;;2.92;;
45254;SDS011;30989;52.078;21.014;2023-11-22T12:08:15;6.95;;;3.13;;
45254;SDS011;30989;52.078;21.014;2023-11-22T12:10:42;6.53;;;2.80;;
45254;SDS011;30989;52.078;21.014;2023-11-22T12:13:08;8.48;;;3.42;;
45254;SDS011;30989;52.078;21.014;2023-11-22T12:15:34;5.85;;;2.92;;
45254;SDS011;30989;52.078;21.014;2023-11-22T12:18:03;9.07;;;3.63;;
45254;SDS011;30989;52.078;21.014;2023-11-22T12:20:29;7.57;;;3.30;;
45254;SDS011;30989;52.078;21.014;2023-11-22T12:22:59;8.00;;;3.65;;
45254;SDS011;30989;52.078;21.014;2023-11-22T12:25:28;5.22;;;2.33;;
45254;SDS011;30989;52.078;21.014;2023-11-22T12:27:54;9.43;;;3.88;;
45254;SDS011;30989;52.078;21.014;2023-11-22T12:30:35;8.88;;;3.58;;
45254;SDS011;30989;52.078;21.014;2023-11-22T12:33:05;9.70;;;4.07;;
45254;SDS011;30989;52.078;21.014;2023-11-22T12:35:32;15.85;;;3.22;;
45254;SDS011;30989;52.078;21.014;2023-11-22T12:38:01;11.88;;;3.53;;
45254;SDS011;30989;52.078;21.014;2023-11-22T12:40:29;6.97;;;2.97;;
45254;SDS011;30989;52.078;21.014;2023-11-22T12:42:58;7.90;;;3.45;;
45254;SDS011;30989;52.078;21.014;2023-11-22T12:45:27;9.27;;;4.40;;
45254;SDS011;30989;52.078;21.014;2023-11-22T12:47:56;11.50;;;3.70;;
45254;SDS011;30989;52.078;21.014;2023-11-22T12:50:34;8.48;;;3.78;;
45254;SDS011;30989;52.078;21.014;2023-11-22T12:53:14;10.70;;;4.00;;
45254;SDS011;30989;52.078;21.014;2023-11-22T12:55:43;12.30;;;4.05;;
45254;SDS011;30989;52.078;21.014;2023-11-22T12:58:10;11.13;;;4.55;;
45254;SDS011;30989;52.078;21.014;2023-11-22T13:00:37;11.02;;;4.38;;
45254;SDS011;30989;52.078;21.014;2023-11-22T13:03:06;10.95;;;3.97;;
45254;SDS011;30989;52.078;21.014;2023-11-22T13:05:35;8.75;;;4.05;;
45254;SDS011;30989;52.078;21.014;2023-11-22T13:08:04;12.48;;;3.65;;
45254;SDS011;30989;52.078;21.014;2023-11-22T13:10:30;8.10;;;4.05;;
45254;SDS011;30989;52.078;21.014;2023-11-22T13:12:57;7.70;;;3.63;;
45254;SDS011;30989;52.078;21.014;2023-11-22T13:15:23;8.10;;;3.85;;
45254;SDS011;30989;52.078;21.014;2023-11-22T13:17:50;8.55;;;3.85;;
45254;SDS011;30989;52.078;21.014;2023-11-22T13:20:21;6.03;;;2.78;;
45254;SDS011;30989;52.078;21.014;2023-11-22T13:22:48;7.47;;;3.17;;
45254;SDS011;30989;52.078;21.014;2023-11-22T13:25:13;8.57;;;3.95;;
45254;SDS011;30989;52.078;21.014;2023-11-22T13:27:39;9.90;;;3.28;;
45254;SDS011;30989;52.078;21.014;2023-11-22T13:30:06;16.27;;;5.15;;
45254;SDS011;30989;52.078;21.014;2023-11-22T13:32:32;6.82;;;3.15;;
45254;SDS011;30989;52.078;21.014;2023-11-22T13:34:58;8.75;;;3.22;;
45254;SDS011;30989;52.078;21.014;2023-11-22T13:37:24;9.18;;;3.35;;
45254;SDS011;30989;52.078;21.014;2023-11-22T13:39:53;9.68;;;3.97;;
45254;SDS011;30989;52.078;21.014;2023-11-22T13:42:18;8.35;;;3.70;;
45254;SDS011;30989;52.078;21.014;2023-11-22T13:44:44;10.98;;;4.43;;
45254;SDS011;30989;52.078;21.014;2023-11-22T13:47:10;10.43;;;3.45;;
45254;SDS011;30989;52.078;21.014;2023-11-22T13:49:36;11.38;;;4.22;;
45254;SDS011;30989;52.078;21.014;2023-11-22T13:52:02;8.38;;;4.00;;
45254;SDS011;30989;52.078;21.014;2023-11-22T13:54:28;10.43;;;4.45;;
45254;SDS011;30989;52.078;21.014;2023-11-22T13:56:53;8.77;;;3.97;;
45254;SDS011;30989;52.078;21.014;2023-11-22T13:59:19;16.15;;;6.22;;
45254;SDS011;30989;52.078;21.014;2023-11-22T14:01:45;9.00;;;4.22;;
45254;SDS011;30989;52.078;21.014;2023-11-22T14:04:11;12.43;;;4.28;;
45254;SDS011;30989;52.078;21.014;2023-11-22T14:06:36;14.38;;;3.42;;
45254;SDS011;30989;52.078;21.014;2023-11-22T14:09:02;14.43;;;4.55;;
45254;SDS011;30989;52.078;21.014;2023-11-22T14:11:28;8.05;;;3.35;;
45254;SDS011;30989;52.078;21.014;2023-11-22T14:13:54;9.70;;;3.80;;
45254;SDS011;30989;52.078;21.014;2023-11-22T14:16:20;12.02;;;3.90;;
45254;SDS011;30989;52.078;21.014;2023-11-22T14:18:45;9.13;;;4.00;;
45254;SDS011;30989;52.078;21.014;2023-11-22T14:21:11;9.57;;;3.65;;
45254;SDS011;30989;52.078;21.014;2023-11-22T14:23:37;18.38;;;4.97;;
45254;SDS011;30989;52.078;21.014;2023-11-22T14:26:02;11.30;;;3.83;;
45254;SDS011;30989;52.078;21.014;2023-11-22T14:28:28;10.25;;;4.35;;
45254;SDS011;30989;52.078;21.014;2023-11-22T14:30:54;11.35;;;4.03;;
45254;SDS011;30989;52.078;21.014;2023-11-22T14:33:20;15.93;;;4.85;;
45254;SDS011;30989;52.078;21.014;2023-11-22T14:35:46;12.13;;;6.28;;
45254;SDS011;30989;52.078;21.014;2023-11-22T14:38:11;14.80;;;4.93;;
45254;SDS011;30989;52.078;21.014;2023-11-22T14:40:38;17.55;;;5.00;;
45254;SDS011;30989;52.078;21.014;2023-11-22T14:43:05;28.70;;;11.80;;